createdAt,value
2018-10-16T00:00:17.605Z,21.00
2018-10-16T00:02:45.806Z,21.10
2018-10-16T00:05:13.561Z,21.10
2018-10-16T00:07:41.236Z,21.00
2018-10-16T00:10:09.571Z,21.10
2018-10-16T00:12:37.274Z,21.00
2018-10-16T00:15:05.870Z,21.10
2018-10-16T00:17:33.502Z,21.00
2018-10-16T00:20:01.122Z,21.00
2018-10-16T00:22:28.731Z,21.10
2018-10-16T00:24:56.344Z,21.10
2018-10-16T00:27:23.970Z,21.00
2018-10-16T00:29:51.641Z,21.00
2018-10-16T00:32:19.241Z,21.10
2018-10-16T00:34:46.850Z,21.00
2018-10-16T00:37:14.477Z,21.10
2018-10-16T00:39:42.214Z,21.00
2018-10-16T00:42:09.999Z,21.00
2018-10-16T00:44:37.628Z,21.00
2018-10-16T00:47:05.235Z,21.10
2018-10-16T00:49:32.847Z,21.00
2018-10-16T00:52:00.701Z,21.00
2018-10-16T00:54:28.313Z,21.10
2018-10-16T00:56:56.041Z,21.10
2018-10-16T00:59:23.741Z,21.00
2018-10-16T01:01:51.342Z,21.00
2018-10-16T01:04:18.947Z,21.00
2018-10-16T01:06:46.532Z,21.00
2018-10-16T01:09:14.451Z,21.00
2018-10-16T01:11:42.045Z,21.00
2018-10-16T01:14:09.670Z,21.00
2018-10-16T01:16:37.389Z,21.00
2018-10-16T01:19:05.210Z,21.00
2018-10-16T01:21:32.793Z,21.00
2018-10-16T01:24:00.412Z,21.00
2018-10-16T01:26:28.013Z,21.10
2018-10-16T01:28:55.708Z,21.00
2018-10-16T01:31:23.304Z,21.00
2018-10-16T01:33:50.891Z,21.00
2018-10-16T01:36:18.494Z,21.00
2018-10-16T01:38:46.088Z,21.00
2018-10-16T01:41:13.670Z,21.00
2018-10-16T01:43:41.274Z,21.00
2018-10-16T01:46:09.496Z,21.00
2018-10-16T01:48:37.578Z,21.00
2018-10-16T01:51:05.189Z,21.00
2018-10-16T01:53:32.804Z,21.00
2018-10-16T01:56:00.458Z,21.00
2018-10-16T01:58:28.137Z,21.00
2018-10-16T02:00:55.961Z,21.00
2018-10-16T02:03:23.579Z,21.00
2018-10-16T02:05:51.173Z,21.00
2018-10-16T02:08:18.771Z,21.00
2018-10-16T02:10:46.364Z,21.00
2018-10-16T02:13:13.976Z,21.00
2018-10-16T02:15:41.574Z,21.00
2018-10-16T02:18:09.212Z,21.00
2018-10-16T02:20:36.822Z,21.00
2018-10-16T02:23:04.411Z,21.00
2018-10-16T02:25:32.001Z,21.00
2018-10-16T02:27:59.609Z,21.00
2018-10-16T02:30:27.208Z,21.00
2018-10-16T02:32:54.837Z,21.00
2018-10-16T02:35:22.419Z,21.00
2018-10-16T02:37:50.022Z,21.00
2018-10-16T02:40:17.605Z,21.00
2018-10-16T02:42:45.218Z,21.00
2018-10-16T02:45:12.817Z,21.00
2018-10-16T02:47:40.641Z,21.00
2018-10-16T02:50:09.345Z,21.00
2018-10-16T02:52:37.025Z,21.00
2018-10-16T02:55:05.261Z,21.00
2018-10-16T02:57:32.915Z,21.00
2018-10-16T03:00:00.633Z,21.00
2018-10-16T03:02:28.237Z,21.00
2018-10-16T03:04:55.835Z,21.00
2018-10-16T03:07:23.437Z,20.90
2018-10-16T03:09:51.221Z,20.90
2018-10-16T03:12:18.835Z,20.90
2018-10-16T03:14:46.772Z,20.90
2018-10-16T03:17:14.466Z,20.90
2018-10-16T03:19:42.435Z,20.90
2018-10-16T03:22:10.115Z,21.00
2018-10-16T03:24:37.719Z,21.00
2018-10-16T03:27:05.664Z,20.90
2018-10-16T03:29:33.261Z,20.90
2018-10-16T03:32:00.936Z,20.90
2018-10-16T03:34:28.909Z,20.90
2018-10-16T03:36:56.519Z,20.90
2018-10-16T03:39:24.345Z,20.90
2018-10-16T03:41:52.121Z,20.90
2018-10-16T03:44:19.793Z,20.90
2018-10-16T03:46:47.700Z,20.90
2018-10-16T03:49:15.310Z,20.90
2018-10-16T03:51:42.959Z,20.90
2018-10-16T03:54:10.959Z,20.90
2018-10-16T03:56:38.590Z,20.90
2018-10-16T03:59:06.304Z,20.90
2018-10-16T04:01:33.960Z,20.90
2018-10-16T04:04:01.704Z,20.90
2018-10-16T04:06:29.408Z,20.90
2018-10-16T04:08:57.082Z,20.90
2018-10-16T04:11:24.845Z,20.90
2018-10-16T04:13:52.679Z,20.90
2018-10-16T04:16:20.582Z,20.90
2018-10-16T04:18:48.418Z,20.90
2018-10-16T04:21:16.132Z,20.90
2018-10-16T04:23:44.259Z,20.90
2018-10-16T04:26:12.646Z,20.90
2018-10-16T04:28:40.305Z,20.90
2018-10-16T04:31:09.118Z,20.90
2018-10-16T04:33:36.887Z,20.90
2018-10-16T04:36:04.748Z,20.90
2018-10-16T04:38:32.526Z,20.90
2018-10-16T04:41:00.167Z,20.80
2018-10-16T04:43:27.903Z,20.90
2018-10-16T04:45:55.550Z,20.90
2018-10-16T04:48:23.565Z,20.90
2018-10-16T04:50:52.853Z,20.90
2018-10-16T04:53:20.723Z,20.90
2018-10-16T04:55:48.710Z,20.90
2018-10-16T04:58:16.419Z,20.80
2018-10-16T05:00:44.055Z,20.90
2018-10-16T05:03:11.926Z,20.80
2018-10-16T05:05:39.716Z,20.90
2018-10-16T05:08:08.072Z,20.80
2018-10-16T05:10:35.777Z,20.60
2018-10-16T05:13:03.788Z,20.30
2018-10-16T05:15:34.528Z,20.20
2018-10-16T05:18:02.641Z,20.20
2018-10-16T05:20:30.287Z,20.30
2018-10-16T05:22:59.305Z,20.40
2018-10-16T05:25:28.423Z,20.40
2018-10-16T05:27:56.618Z,20.50
2018-10-16T05:30:24.250Z,20.50
2018-10-16T05:32:51.982Z,20.50
2018-10-16T05:35:19.728Z,20.60
2018-10-16T05:37:47.476Z,20.60
2018-10-16T05:40:15.258Z,20.60
2018-10-16T05:42:42.886Z,20.60
2018-10-16T05:45:12.090Z,20.60
2018-10-16T05:47:40.858Z,20.60
2018-10-16T05:50:08.974Z,20.60
2018-10-16T05:52:36.758Z,20.70
2018-10-16T05:55:04.995Z,20.70
2018-10-16T05:57:32.900Z,20.70
2018-10-16T06:00:06.211Z,20.70
2018-10-16T06:02:33.976Z,20.70
2018-10-16T06:05:01.731Z,20.60
2018-10-16T06:07:29.343Z,20.70
2018-10-16T06:09:57.105Z,20.70
2018-10-16T06:12:24.870Z,20.70
2018-10-16T06:14:52.448Z,20.70
2018-10-16T06:17:20.217Z,20.70
2018-10-16T06:19:47.826Z,20.70
2018-10-16T06:22:16.368Z,20.70
2018-10-16T06:24:43.997Z,20.70
2018-10-16T06:27:11.729Z,20.70
2018-10-16T06:29:39.344Z,20.60
2018-10-16T06:32:07.117Z,20.70
2018-10-16T06:34:34.755Z,20.70
2018-10-16T06:37:02.492Z,20.70
2018-10-16T06:39:30.788Z,20.70
2018-10-16T06:41:58.827Z,20.70
2018-10-16T06:44:27.239Z,20.70
2018-10-16T06:46:55.800Z,20.70
2018-10-16T06:49:23.501Z,20.70
2018-10-16T06:51:51.173Z,20.70
2018-10-16T06:54:19.563Z,20.70
2018-10-16T06:56:47.437Z,20.70
2018-10-16T06:59:15.126Z,20.60
2018-10-16T07:01:42.800Z,20.60
2018-10-16T07:04:10.604Z,20.60
2018-10-16T07:06:38.589Z,20.70
2018-10-16T07:09:07.436Z,20.70
2018-10-16T07:11:37.227Z,20.70
2018-10-16T07:14:05.697Z,20.70
2018-10-16T07:16:33.716Z,20.70
2018-10-16T07:19:01.607Z,20.70
2018-10-16T07:21:29.356Z,20.70
2018-10-16T07:23:57.327Z,20.70
2018-10-16T07:26:24.911Z,20.70
2018-10-16T07:28:52.787Z,20.70
2018-10-16T07:31:20.409Z,20.60
2018-10-16T07:33:48.131Z,20.70
2018-10-16T07:36:15.754Z,20.70
2018-10-16T07:38:43.641Z,20.70
2018-10-16T07:41:11.327Z,20.80
2018-10-16T07:43:38.956Z,20.80
2018-10-16T07:46:06.602Z,20.80
2018-10-16T07:48:34.322Z,20.90
2018-10-16T07:51:02.515Z,20.80
2018-10-16T07:53:30.607Z,20.90
2018-10-16T07:55:58.658Z,20.90
2018-10-16T07:58:26.289Z,20.90
2018-10-16T08:00:54.016Z,20.90
2018-10-16T08:03:21.781Z,20.90
2018-10-16T08:05:49.569Z,20.90
2018-10-16T08:08:17.436Z,20.90
2018-10-16T08:10:45.104Z,20.90
2018-10-16T08:13:12.986Z,20.80
2018-10-16T08:15:40.762Z,20.90
2018-10-16T08:18:09.097Z,20.90
2018-10-16T08:20:36.730Z,20.90
2018-10-16T08:23:04.755Z,20.90
2018-10-16T08:25:32.497Z,20.90
2018-10-16T08:28:00.127Z,20.90
2018-10-16T08:30:28.263Z,20.80
2018-10-16T08:32:55.941Z,20.90
2018-10-16T08:35:23.740Z,20.80
2018-10-16T08:38:55.784Z,20.80
2018-10-16T08:42:31.966Z,20.80
2018-10-16T08:45:08.224Z,20.80
2018-10-16T08:47:41.499Z,20.80
2018-10-16T08:50:14.963Z,20.70
2018-10-16T08:52:42.590Z,20.80
2018-10-16T08:55:10.296Z,20.80
2018-10-16T08:57:37.895Z,20.70
2018-10-16T09:00:05.625Z,20.70
2018-10-16T09:02:33.235Z,20.80
2018-10-16T09:05:00.945Z,20.80
2018-10-16T09:07:28.701Z,20.80
2018-10-16T09:09:56.328Z,20.80
2018-10-16T09:12:23.949Z,20.80
2018-10-16T09:14:51.554Z,20.80
2018-10-16T09:17:19.149Z,20.80
2018-10-16T09:19:46.742Z,20.80
2018-10-16T09:22:14.424Z,20.80
2018-10-16T09:24:42.050Z,20.80
2018-10-16T09:27:09.682Z,20.80
2018-10-16T09:29:37.308Z,20.80
2018-10-16T09:32:05.532Z,20.80
2018-10-16T09:34:33.134Z,20.80
2018-10-16T09:37:00.903Z,20.80
2018-10-16T09:39:28.500Z,20.80
2018-10-16T09:41:56.319Z,20.80
2018-10-16T09:44:23.927Z,20.80
2018-10-16T09:46:51.535Z,20.80
2018-10-16T09:49:19.146Z,20.80
2018-10-16T09:51:46.764Z,20.80
2018-10-16T09:54:14.362Z,20.80
2018-10-16T09:56:42.079Z,20.80
2018-10-16T09:59:09.677Z,20.80
2018-10-16T10:01:43.380Z,20.80
2018-10-16T10:04:11.032Z,20.80
2018-10-16T10:06:38.702Z,20.80
2018-10-16T10:09:08.304Z,20.80
2018-10-16T10:11:36.203Z,20.80
2018-10-16T10:14:03.833Z,20.80
2018-10-16T10:16:31.555Z,20.80
2018-10-16T10:18:59.824Z,20.80
2018-10-16T10:21:27.445Z,20.80
2018-10-16T10:23:55.151Z,20.80
2018-10-16T10:26:22.886Z,20.80
2018-10-16T10:28:50.701Z,20.80
2018-10-16T10:31:18.428Z,20.80
2018-10-16T10:33:46.129Z,20.80
2018-10-16T10:36:13.726Z,20.80
2018-10-16T10:38:41.328Z,20.80
2018-10-16T10:41:09.008Z,20.80
2018-10-16T10:43:36.582Z,20.80
2018-10-16T10:46:04.384Z,20.80
2018-10-16T10:48:32.007Z,20.80
2018-10-16T10:50:59.816Z,20.80
2018-10-16T10:53:27.227Z,20.80
2018-10-16T10:55:54.849Z,20.80
2018-10-16T10:58:22.455Z,20.80
2018-10-16T11:00:50.147Z,20.80
2018-10-16T11:03:17.833Z,20.80
2018-10-16T11:05:45.463Z,20.90
2018-10-16T11:08:13.349Z,20.80
2018-10-16T11:10:41.047Z,20.80
2018-10-16T11:13:08.795Z,20.80
2018-10-16T11:15:36.429Z,20.80
2018-10-16T11:18:04.157Z,20.80
2018-10-16T11:20:32.143Z,20.80
2018-10-16T11:22:59.905Z,20.80
2018-10-16T11:25:27.622Z,20.80
2018-10-16T11:27:55.312Z,20.80
2018-10-16T11:30:23.019Z,20.90
2018-10-16T11:32:50.676Z,20.90
2018-10-16T11:35:18.311Z,20.80
2018-10-16T11:37:45.971Z,20.80
2018-10-16T11:40:13.595Z,20.80
2018-10-16T11:42:41.860Z,20.80
2018-10-16T11:45:09.784Z,20.80
2018-10-16T11:47:38.054Z,20.80
2018-10-16T11:50:06.104Z,20.80
2018-10-16T11:52:33.983Z,20.80
2018-10-16T11:55:01.874Z,20.80
2018-10-16T11:57:29.521Z,20.80
2018-10-16T11:59:57.231Z,20.80
2018-10-16T12:02:24.862Z,20.80
2018-10-16T12:04:52.554Z,20.80
2018-10-16T12:07:20.156Z,20.80
2018-10-16T12:09:47.901Z,20.80
2018-10-16T12:12:15.563Z,20.80
2018-10-16T12:14:43.372Z,20.80
2018-10-16T12:19:19.287Z,20.80
2018-10-16T12:21:47.020Z,20.80
2018-10-16T12:24:14.789Z,20.80
2018-10-16T12:26:42.779Z,20.70
2018-10-16T12:29:10.388Z,20.70
2018-10-16T12:31:38.266Z,20.80
2018-10-16T12:34:06.019Z,20.70
2018-10-16T12:36:33.789Z,20.80
2018-10-16T12:39:01.529Z,20.80
2018-10-16T12:41:29.247Z,20.80
2018-10-16T12:43:56.942Z,20.80
2018-10-16T12:46:24.599Z,20.80
2018-10-16T12:48:52.376Z,20.80
2018-10-16T12:51:20.255Z,20.80
2018-10-16T12:53:47.974Z,20.80
2018-10-16T12:56:15.754Z,20.80
2018-10-16T12:58:43.495Z,20.80
2018-10-16T13:01:11.172Z,20.80
2018-10-16T13:03:38.861Z,20.80
2018-10-16T13:06:06.644Z,20.80
2018-10-16T13:08:34.318Z,20.80
2018-10-16T13:11:02.012Z,20.80
2018-10-16T13:13:29.858Z,20.80
2018-10-16T13:15:57.589Z,20.80
2018-10-16T13:18:25.198Z,20.80
2018-10-16T13:20:52.803Z,20.80
2018-10-16T13:23:20.469Z,20.80
2018-10-16T13:25:48.069Z,20.80
2018-10-16T13:28:15.684Z,20.80
2018-10-16T13:30:43.406Z,20.80
2018-10-16T13:33:11.011Z,20.80
2018-10-16T13:35:38.828Z,20.80
2018-10-16T13:38:06.549Z,20.80
2018-10-16T13:40:34.175Z,20.80
2018-10-16T13:43:02.801Z,20.80
2018-10-16T13:45:30.902Z,20.80
2018-10-16T13:47:58.515Z,20.80
2018-10-16T13:50:26.237Z,20.80
2018-10-16T13:52:54.923Z,20.90
2018-10-16T13:55:22.775Z,20.80
2018-10-16T13:57:50.418Z,20.90
2018-10-16T14:00:20.206Z,20.80
2018-10-16T14:02:49.136Z,20.80
2018-10-16T14:05:16.737Z,20.80
2018-10-16T14:07:44.371Z,20.90
2018-10-16T14:10:13.229Z,20.80
2018-10-16T14:12:42.290Z,20.80
2018-10-16T14:15:10.583Z,20.80
2018-10-16T14:17:38.308Z,20.90
2018-10-16T14:20:06.397Z,20.80
2018-10-16T14:22:35.122Z,20.80
2018-10-16T14:25:02.725Z,20.80
2018-10-16T14:27:30.358Z,20.80
2018-10-16T14:29:58.182Z,20.80
2018-10-16T14:32:25.778Z,20.90
2018-10-16T14:34:53.383Z,20.80
2018-10-16T14:37:21.394Z,20.80
2018-10-16T14:39:50.764Z,20.80
2018-10-16T14:42:18.698Z,20.80
2018-10-16T14:44:46.881Z,20.90
2018-10-16T14:47:15.006Z,20.80
2018-10-16T14:49:42.716Z,20.90
2018-10-16T14:52:10.547Z,20.90
2018-10-16T14:54:38.123Z,20.90
2018-10-16T14:57:13.641Z,20.90
2018-10-16T14:59:42.411Z,20.90
2018-10-16T15:02:13.010Z,20.90
2018-10-16T15:04:40.872Z,20.90
2018-10-16T15:07:08.502Z,20.90
2018-10-16T15:09:36.340Z,20.90
2018-10-16T15:12:04.276Z,20.90
2018-10-16T15:14:32.011Z,20.90
2018-10-16T15:16:59.636Z,20.90
2018-10-16T15:19:27.286Z,20.90
2018-10-16T15:21:55.121Z,20.90
2018-10-16T15:24:22.756Z,20.90
2018-10-16T15:26:50.362Z,20.90
2018-10-16T15:29:18.104Z,20.90
2018-10-16T15:31:45.793Z,20.80
2018-10-16T15:34:13.477Z,20.90
2018-10-16T15:36:41.235Z,20.90
2018-10-16T15:39:09.974Z,20.90
2018-10-16T15:41:37.927Z,20.90
2018-10-16T15:44:05.958Z,20.90
2018-10-16T15:46:33.702Z,20.90
2018-10-16T15:49:01.825Z,20.90
2018-10-16T15:51:29.457Z,20.90
2018-10-16T15:53:57.260Z,20.90
2018-10-16T15:56:24.920Z,20.90
2018-10-16T15:58:52.679Z,20.90
2018-10-16T16:01:20.290Z,20.90
2018-10-16T16:03:47.959Z,20.90
2018-10-16T16:06:15.693Z,20.90
2018-10-16T16:08:43.781Z,20.90
2018-10-16T16:11:11.436Z,20.90
2018-10-16T16:13:40.229Z,20.90
2018-10-16T16:16:07.880Z,20.90
2018-10-16T16:18:35.509Z,20.90
2018-10-16T16:21:03.290Z,20.90
2018-10-16T16:23:30.974Z,20.90
2018-10-16T16:25:58.696Z,20.90
2018-10-16T16:28:26.254Z,20.90
2018-10-16T16:30:53.880Z,20.90
2018-10-16T16:33:21.569Z,20.90
2018-10-16T16:35:49.205Z,20.90
2018-10-16T16:38:16.813Z,20.90
2018-10-16T16:40:44.586Z,20.90
2018-10-16T16:43:12.248Z,20.90
2018-10-16T16:45:40.027Z,20.90
2018-10-16T16:48:07.831Z,20.90
2018-10-16T16:50:35.431Z,20.90
2018-10-16T16:53:03.059Z,21.00
2018-10-16T16:55:30.702Z,20.90
2018-10-16T16:57:58.345Z,20.90
2018-10-16T17:00:26.055Z,21.00
2018-10-16T17:02:53.853Z,20.90
2018-10-16T17:05:21.459Z,20.90
2018-10-16T17:07:49.053Z,20.90
2018-10-16T17:10:16.667Z,20.90
2018-10-16T17:12:44.280Z,20.90
2018-10-16T17:15:14.396Z,20.90
2018-10-16T17:17:42.598Z,20.90
2018-10-16T17:20:11.474Z,20.90
2018-10-16T17:22:39.166Z,21.00
2018-10-16T17:25:08.217Z,21.00
2018-10-16T17:27:35.654Z,20.90
2018-10-16T17:30:03.308Z,20.90
2018-10-16T17:32:30.979Z,20.90
2018-10-16T17:34:58.580Z,20.90
2018-10-16T17:37:26.404Z,20.90
2018-10-16T17:39:54.549Z,20.90
2018-10-16T17:42:23.563Z,20.90
2018-10-16T17:44:51.205Z,20.90
2018-10-16T17:47:18.804Z,21.00
2018-10-16T17:49:46.434Z,20.90
2018-10-16T17:52:14.085Z,20.90
2018-10-16T17:54:41.695Z,20.90
2018-10-16T17:57:09.417Z,20.90
2018-10-16T17:59:36.991Z,21.00
2018-10-16T18:02:04.724Z,20.90
2018-10-16T18:04:32.469Z,20.90
2018-10-16T18:07:00.072Z,20.90
2018-10-16T18:09:27.961Z,20.90
2018-10-16T18:11:56.016Z,20.90
2018-10-16T18:14:23.613Z,20.90
2018-10-16T18:16:51.309Z,21.00
2018-10-16T18:19:18.949Z,20.90
2018-10-16T18:21:47.571Z,20.90
2018-10-16T18:24:15.428Z,20.90
2018-10-16T18:26:43.368Z,20.90
2018-10-16T18:29:11.207Z,20.90
2018-10-16T18:31:38.816Z,20.90
2018-10-16T18:34:06.519Z,20.90
2018-10-16T18:36:35.769Z,20.90
2018-10-16T18:39:04.784Z,20.90
2018-10-16T18:41:32.574Z,20.90
2018-10-16T18:44:01.418Z,20.90
2018-10-16T18:46:29.335Z,20.90
2018-10-16T18:48:57.026Z,20.90
2018-10-16T18:51:24.702Z,20.90
2018-10-16T18:53:52.471Z,21.00
2018-10-16T18:56:20.556Z,20.90
2018-10-16T18:58:48.657Z,20.90
2018-10-16T19:01:16.643Z,20.90
2018-10-16T19:03:44.644Z,20.90
2018-10-16T19:06:12.527Z,20.90
2018-10-16T19:08:40.323Z,20.90
2018-10-16T19:11:08.365Z,20.90
2018-10-16T19:13:36.297Z,20.90
2018-10-16T19:16:04.039Z,20.90
2018-10-16T19:18:31.639Z,20.90
2018-10-16T19:20:59.323Z,20.90
2018-10-16T19:23:27.160Z,20.90
2018-10-16T19:25:54.947Z,20.90
2018-10-16T19:28:22.946Z,20.90
2018-10-16T19:30:50.628Z,20.90
2018-10-16T19:33:18.378Z,20.90
2018-10-16T19:35:46.143Z,20.90
2018-10-16T19:38:13.845Z,20.90
2018-10-16T19:40:41.700Z,20.90
2018-10-16T19:43:09.507Z,20.90
2018-10-16T19:45:37.265Z,20.90
2018-10-16T19:48:05.046Z,20.90
2018-10-16T19:50:32.848Z,20.90
2018-10-16T19:53:00.605Z,20.90
2018-10-16T19:55:28.312Z,20.90
2018-10-16T19:57:56.053Z,20.90
2018-10-16T20:00:23.818Z,20.90
2018-10-16T20:02:51.444Z,20.90
2018-10-16T20:05:19.100Z,20.90
2018-10-16T20:07:46.953Z,20.90
2018-10-16T20:10:14.559Z,20.90
2018-10-16T20:12:42.357Z,20.90
2018-10-16T20:15:11.178Z,20.90
2018-10-16T20:17:39.147Z,20.90
2018-10-16T20:20:07.178Z,20.90
2018-10-16T20:22:34.806Z,20.90
2018-10-16T20:25:02.557Z,20.90
2018-10-16T20:27:30.122Z,20.90
2018-10-16T20:29:57.774Z,20.90
2018-10-16T20:32:25.456Z,20.90
2018-10-16T20:34:53.077Z,20.90
2018-10-16T20:37:20.711Z,20.90
2018-10-16T20:39:48.520Z,20.90
2018-10-16T20:42:16.121Z,20.90
2018-10-16T20:44:43.727Z,20.90
2018-10-16T20:47:11.336Z,20.90
2018-10-16T20:49:38.942Z,20.90
2018-10-16T20:52:06.696Z,20.90
2018-10-16T20:54:34.330Z,20.90
2018-10-16T20:57:01.990Z,20.90
2018-10-16T20:59:29.584Z,20.90
2018-10-16T21:01:57.205Z,20.90
2018-10-16T21:04:24.989Z,20.90
2018-10-16T21:06:52.755Z,20.90
2018-10-16T21:09:20.475Z,20.90
2018-10-16T21:11:48.299Z,20.90
2018-10-16T21:14:16.025Z,20.90
2018-10-16T21:16:43.795Z,20.90
2018-10-16T21:19:11.652Z,20.90
2018-10-16T21:21:39.353Z,20.90
2018-10-16T21:24:07.145Z,20.90
2018-10-16T21:26:34.749Z,20.90
2018-10-16T21:29:02.426Z,20.90
2018-10-16T21:31:30.056Z,20.90
2018-10-16T21:33:57.841Z,20.90
2018-10-16T21:36:25.527Z,20.90
2018-10-16T21:38:53.200Z,20.90
2018-10-16T21:41:20.886Z,20.90
2018-10-16T21:43:48.646Z,20.90
2018-10-16T21:46:16.343Z,20.90
2018-10-16T21:48:44.105Z,20.90
2018-10-16T21:51:12.076Z,20.90
2018-10-16T21:53:39.872Z,20.90
2018-10-16T21:56:07.481Z,20.90
2018-10-16T21:58:35.407Z,20.90
2018-10-16T22:01:10.404Z,20.90
2018-10-16T22:03:38.296Z,20.90
2018-10-16T22:06:06.007Z,20.90
2018-10-16T22:08:33.821Z,20.90
2018-10-16T22:11:01.481Z,20.90
2018-10-16T22:13:29.128Z,20.90
2018-10-16T22:15:57.031Z,20.90
2018-10-16T22:18:24.637Z,20.90
2018-10-16T22:20:52.381Z,20.90
2018-10-16T22:23:20.031Z,20.90
2018-10-16T22:25:47.928Z,20.90
2018-10-16T22:28:15.597Z,20.90
2018-10-16T22:30:43.695Z,20.90
2018-10-16T22:33:11.463Z,20.90
2018-10-16T22:35:39.246Z,20.90
2018-10-16T22:38:07.223Z,20.90
2018-10-16T22:40:34.884Z,20.90
2018-10-16T22:43:02.901Z,20.90
2018-10-16T22:45:30.560Z,20.90
2018-10-16T22:47:58.330Z,20.90
2018-10-16T22:50:26.166Z,20.90
2018-10-16T22:52:53.827Z,20.90
2018-10-16T22:55:21.487Z,20.90
2018-10-16T22:57:49.240Z,20.90
2018-10-16T23:00:17.999Z,20.90
2018-10-16T23:02:46.542Z,20.90
2018-10-16T23:05:14.285Z,20.90
2018-10-16T23:07:42.216Z,20.90
2018-10-16T23:10:09.823Z,20.90
2018-10-16T23:12:37.940Z,20.90
2018-10-16T23:15:06.226Z,20.90
2018-10-16T23:17:33.909Z,20.90
2018-10-16T23:20:01.692Z,20.90
2018-10-16T23:22:29.470Z,20.90
2018-10-16T23:24:57.250Z,20.90
2018-10-16T23:27:24.880Z,20.90
2018-10-16T23:29:52.494Z,20.90
2018-10-16T23:32:20.170Z,20.90
2018-10-16T23:34:48.188Z,20.90
2018-10-16T23:37:15.965Z,20.90
2018-10-16T23:39:43.704Z,20.90
2018-10-16T23:42:11.329Z,20.90
2018-10-16T23:44:38.942Z,20.90
2018-10-16T23:47:06.570Z,20.90
2018-10-16T23:49:34.305Z,20.90
2018-10-16T23:52:01.945Z,20.90
2018-10-16T23:54:29.829Z,20.90
2018-10-16T23:56:57.595Z,20.90
2018-10-16T23:59:25.287Z,20.90
